Time;durP1;ratioP1;P1;durP2;ratioP2;P2;SDS_P1;SDS_P2;PMS_P1;PMS_P2;Temp;Humidity;BMP_temperature;BMP_pressure;BME280_temperature;BME280_humidity;BME280_pressure;Samples;Min_cycle;Max_cycle;Signal;HPM_P1;HPM_P2
2022/08/17 00:00:42;;;;;;;9.07;8.27;;;22.60;99.90;;;;;;4989591;28;20450;-65
2022/08/17 00:03:30;;;;;;;10.30;8.60;;;22.70;99.90;;;;;;4991529;28;20408;-65
2022/08/17 00:05:59;;;;;;;9.60;8.17;;;22.60;99.90;;;;;;4991754;28;20892;-65
2022/08/17 00:08:32;;;;;;;14.70;9.10;;;22.60;99.90;;;;;;4991080;28;20866;-65
2022/08/17 00:10:59;;;;;;;9.60;8.73;;;22.60;99.90;;;;;;4973398;28;20436;-64
2022/08/17 00:13:32;;;;;;;11.00;8.40;;;22.60;99.90;;;;;;4991546;28;20600;-64
2022/08/17 00:16:01;;;;;;;8.73;7.73;;;22.60;99.90;;;;;;4991090;28;20514;-64
2022/08/17 00:18:29;;;;;;;8.57;7.57;;;22.60;99.90;;;;;;4990776;28;20439;-65
2022/08/17 00:20:57;;;;;;;9.27;8.37;;;22.60;99.90;;;;;;4991179;28;20431;-65
2022/08/17 00:23:23;;;;;;;9.03;8.17;;;22.60;99.90;;;;;;4991593;28;20497;-66
2022/08/17 00:25:49;;;;;;;9.67;8.80;;;22.60;99.90;;;;;;4991225;28;20923;-64
2022/08/17 00:28:15;;;;;;;11.53;9.23;;;22.50;99.90;;;;;;4991033;28;20447;-64
2022/08/17 00:30:46;;;;;;;11.07;8.03;;;22.50;99.90;;;;;;4991266;28;20166;-64
2022/08/17 00:33:15;;;;;;;8.67;7.70;;;22.40;99.90;;;;;;4991061;28;20407;-64
2022/08/17 00:35:42;;;;;;;10.53;8.50;;;22.40;99.90;;;;;;4991379;28;20408;-65
2022/08/17 00:38:08;;;;;;;10.50;7.87;;;22.40;99.90;;;;;;4990974;28;20436;-65
2022/08/17 00:41:04;;;;;;;10.07;8.83;;;22.30;99.90;;;;;;4990868;28;20424;-64
2022/08/17 00:43:35;;;;;;;8.83;8.03;;;22.20;99.90;;;;;;4989574;28;20606;-65
2022/08/17 00:46:04;;;;;;;9.60;8.70;;;22.10;99.90;;;;;;4991172;28;20424;-66
2022/08/17 00:48:30;;;;;;;13.07;8.97;;;22.20;99.90;;;;;;4991193;28;20891;-66
2022/08/17 00:51:18;;;;;;;11.57;9.07;;;22.10;99.90;;;;;;4991630;28;20412;-64
2022/08/17 00:53:50;;;;;;;14.23;11.47;;;22.10;99.90;;;;;;4973629;28;20732;-63
2022/08/17 00:56:27;;;;;;;9.03;8.13;;;22.00;99.90;;;;;;4990176;28;20467;-65
2022/08/17 00:58:54;;;;;;;8.50;7.57;;;22.10;99.90;;;;;;4990226;28;20498;-66
2022/08/17 01:01:21;;;;;;;8.27;7.57;;;22.00;99.90;;;;;;4990682;28;20420;-64
2022/08/17 01:03:47;;;;;;;8.67;7.73;;;22.00;99.90;;;;;;4990213;28;20844;-64
2022/08/17 01:06:13;;;;;;;8.53;7.73;;;22.00;99.90;;;;;;4990698;28;20963;-65
2022/08/17 01:08:39;;;;;;;20.83;8.97;;;22.00;99.90;;;;;;4989804;28;20432;-64
2022/08/17 01:11:06;;;;;;;10.63;7.73;;;22.00;99.90;;;;;;4989102;28;20675;-65
2022/08/17 01:13:41;;;;;;;10.13;9.13;;;22.00;99.90;;;;;;4990427;28;20877;-65
2022/08/17 01:16:16;;;;;;;9.63;8.63;;;21.80;99.90;;;;;;4989910;28;20451;-65
2022/08/17 01:18:44;;;;;;;8.83;8.00;;;21.80;99.90;;;;;;4989802;28;20521;-65
2022/08/17 01:21:36;;;;;;;9.40;8.53;;;21.90;99.90;;;;;;4990456;28;20408;-65
2022/08/17 01:24:03;;;;;;;10.00;8.30;;;21.80;99.90;;;;;;4990664;28;20401;-65
2022/08/17 01:26:31;;;;;;;9.40;7.80;;;21.80;99.90;;;;;;4990193;28;20912;-65
2022/08/17 01:28:58;;;;;;;9.80;7.97;;;21.80;99.90;;;;;;4989638;28;20488;-66
2022/08/17 01:31:29;;;;;;;9.47;8.67;;;21.80;99.90;;;;;;4989750;28;20440;-65
2022/08/17 01:34:01;;;;;;;8.63;7.93;;;21.70;99.90;;;;;;4989611;28;20571;-66
2022/08/17 01:36:27;;;;;;;9.43;8.23;;;21.80;99.90;;;;;;4990141;28;20448;-66
2022/08/17 01:38:53;;;;;;;8.97;8.17;;;21.80;99.90;;;;;;4988893;28;20448;-66
2022/08/17 01:41:21;;;;;;;9.23;8.33;;;21.70;99.90;;;;;;4972137;28;20180;-64
2022/08/17 01:43:53;;;;;;;8.07;7.40;;;21.60;99.90;;;;;;4990167;28;20824;-66
2022/08/17 01:46:29;;;;;;;8.10;7.30;;;21.70;99.90;;;;;;4989892;28;20901;-66
2022/08/17 01:48:56;;;;;;;15.77;8.77;;;21.70;99.90;;;;;;4989183;28;20863;-66
2022/08/17 01:51:31;;;;;;;9.83;8.50;;;21.60;99.90;;;;;;4989881;28;20459;-65
2022/08/17 01:54:04;;;;;;;8.80;7.90;;;21.60;99.90;;;;;;4989893;28;20956;-64
2022/08/17 01:56:31;;;;;;;9.37;8.63;;;21.70;99.90;;;;;;4989357;28;20462;-65
2022/08/17 01:58:57;;;;;;;11.73;9.33;;;21.70;99.90;;;;;;4988896;28;20548;-65
2022/08/17 02:01:27;;;;;;;12.07;9.33;;;21.60;99.90;;;;;;4989159;28;20515;-66
2022/08/17 02:03:54;;;;;;;12.17;8.97;;;21.60;99.90;;;;;;4989654;28;20602;-65
2022/08/17 02:06:20;;;;;;;10.40;8.83;;;21.50;99.90;;;;;;4989872;28;20451;-65
2022/08/17 02:08:46;;;;;;;9.40;8.50;;;21.50;99.90;;;;;;4988632;28;20888;-65
2022/08/17 02:11:15;;;;;;;8.97;8.13;;;21.50;99.90;;;;;;4988984;28;20420;-65
2022/08/17 02:13:47;;;;;;;10.43;8.30;;;21.60;99.90;;;;;;4989534;28;20416;-65
2022/08/17 02:16:13;;;;;;;12.03;8.10;;;21.60;99.90;;;;;;4990758;28;20467;-64
2022/08/17 02:18:39;;;;;;;15.00;9.10;;;21.60;99.90;;;;;;4989970;28;20427;-66
2022/08/17 02:21:05;;;;;;;9.70;8.80;;;21.50;99.90;;;;;;4992028;28;20408;-64
2022/08/17 02:23:35;;;;;;;11.50;8.80;;;21.50;99.90;;;;;;4991182;28;20562;-66
2022/08/17 02:26:00;;;;;;;9.90;8.97;;;21.40;99.90;;;;;;4988998;28;20420;-64
2022/08/17 02:28:27;;;;;;;10.23;9.23;;;21.50;99.90;;;;;;4988639;28;20789;-65
2022/08/17 02:30:53;;;;;;;9.07;8.13;;;21.40;99.90;;;;;;4989154;28;20256;-66
2022/08/17 02:33:20;;;;;;;9.83;8.10;;;21.40;99.90;;;;;;4989015;28;20424;-64
2022/08/17 02:35:47;;;;;;;9.27;8.40;;;21.40;99.90;;;;;;4989071;28;20515;-64
2022/08/17 02:38:13;;;;;;;9.27;8.43;;;21.40;99.90;;;;;;4988179;28;20594;-65
2022/08/17 02:40:39;;;;;;;8.63;7.83;;;21.40;99.90;;;;;;4988359;28;20420;-66
2022/08/17 02:43:08;;;;;;;8.77;7.97;;;21.30;99.90;;;;;;4989034;28;20204;-65
2022/08/17 02:45:34;;;;;;;11.53;7.87;;;21.30;99.90;;;;;;4988577;28;20484;-65
2022/08/17 02:48:00;;;;;;;9.70;8.50;;;21.40;99.90;;;;;;4988479;28;20459;-63
2022/08/17 02:50:26;;;;;;;9.40;8.50;;;21.50;99.90;;;;;;4988635;28;20432;-64
2022/08/17 02:52:52;;;;;;;9.37;7.53;;;21.40;99.90;;;;;;4989170;28;20754;-63
2022/08/17 02:55:27;;;;;;;10.57;8.93;;;21.50;99.90;;;;;;4987904;28;20185;-64
2022/08/17 02:57:54;;;;;;;10.37;8.37;;;21.50;99.90;;;;;;4987878;28;20460;-65
2022/08/17 03:00:28;;;;;;;11.67;8.40;;;21.50;99.90;;;;;;4988237;28;20484;-65
2022/08/17 03:02:55;;;;;;;13.07;9.10;;;21.50;99.90;;;;;;4988336;28;20524;-65
2022/08/17 03:05:25;;;;;;;11.40;8.60;;;21.40;99.90;;;;;;4988702;28;20420;-64
2022/08/17 03:07:51;;;;;;;9.40;8.30;;;21.50;99.90;;;;;;4988272;28;20446;-65
2022/08/17 03:10:18;;;;;;;9.67;8.60;;;21.50;99.90;;;;;;4987897;28;20470;-66
2022/08/17 03:12:45;;;;;;;9.63;7.87;;;21.40;99.90;;;;;;4988680;28;20413;-65
2022/08/17 03:15:15;;;;;;;9.60;8.70;;;21.40;99.90;;;;;;4988330;28;20859;-65
2022/08/17 03:17:41;;;;;;;9.93;8.20;;;21.30;99.90;;;;;;4987656;28;20495;-64
2022/08/17 03:20:07;;;;;;;9.33;7.50;;;21.30;99.90;;;;;;4988266;28;20873;-65
2022/08/17 03:22:54;;;;;;;9.80;8.27;;;21.30;99.90;;;;;;4988478;28;20946;-66
2022/08/17 03:25:26;;;;;;;11.83;9.67;;;21.40;99.90;;;;;;4988072;28;20388;-64
2022/08/17 03:27:53;;;;;;;9.70;8.80;;;21.40;99.90;;;;;;4988066;28;20456;-66
2022/08/17 03:30:21;;;;;;;8.63;7.83;;;21.30;99.90;;;;;;4988117;28;20416;-65
2022/08/17 03:32:49;;;;;;;10.47;9.30;;;21.30;99.90;;;;;;4988334;28;20952;-65
2022/08/17 03:35:20;;;;;;;8.83;7.97;;;21.30;99.90;;;;;;4990560;28;20418;-66
2022/08/17 03:37:46;;;;;;;9.17;8.07;;;21.30;99.90;;;;;;4992329;28;20498;-65
2022/08/17 03:40:13;;;;;;;18.37;8.43;;;21.20;99.90;;;;;;4992078;28;20853;-65
2022/08/17 03:42:39;;;;;;;13.30;9.40;;;21.20;99.90;;;;;;4992511;28;20591;-66
2022/08/17 03:45:09;;;;;;;16.10;10.00;;;21.20;99.90;;;;;;4992295;28;20988;-65
2022/08/17 03:58:37;;;;;;;23.53;10.30;;;21.30;99.90;;;;;;4992312;28;20750;-63
2022/08/17 04:01:04;;;;;;;92.20;20.60;;;21.30;99.90;;;;;;4992289;28;20407;-66
2022/08/17 04:03:30;;;;;;;26.30;10.57;;;21.30;99.90;;;;;;4992584;28;20220;-64
2022/08/17 04:05:56;;;;;;;14.23;9.33;;;21.30;99.90;;;;;;4993306;28;20416;-63
2022/08/17 04:08:21;;;;;;;12.23;9.60;;;21.30;99.90;;;;;;4993860;28;20205;-63
2022/08/17 04:10:47;;;;;;;19.80;10.17;;;21.40;99.90;;;;;;4993818;28;20177;-65
2022/08/17 04:13:13;;;;;;;17.93;9.33;;;21.30;99.90;;;;;;4992214;28;20692;-65
2022/08/17 04:15:39;;;;;;;24.23;9.80;;;21.40;99.90;;;;;;4991574;28;20262;-65
2022/08/17 04:18:05;;;;;;;12.50;8.10;;;21.30;99.90;;;;;;4991134;28;20261;-65
2022/08/17 04:20:31;;;;;;;15.33;10.17;;;21.40;99.90;;;;;;4991302;28;20184;-66
2022/08/17 04:23:03;;;;;;;11.80;9.07;;;21.40;99.90;;;;;;4985785;28;20419;-66
2022/08/17 04:25:32;;;;;;;8.47;7.70;;;21.40;99.90;;;;;;4980969;28;20196;-62
2022/08/17 04:27:59;;;;;;;15.77;9.20;;;21.50;99.90;;;;;;4971153;28;20929;-67
2022/08/17 04:30:28;;;;;;;18.90;9.83;;;21.50;99.90;;;;;;4994629;28;20860;-64
2022/08/17 04:33:09;;;;;;;17.60;9.33;;;21.50;99.90;;;;;;4988745;28;20416;-66
2022/08/17 04:35:38;;;;;;;15.87;9.13;;;21.40;99.90;;;;;;4990628;28;20753;-66
2022/08/17 04:38:05;;;;;;;18.40;9.93;;;21.40;99.90;;;;;;4990512;28;20899;-66
2022/08/17 04:43:20;;;;;;;20.93;11.97;;;21.40;99.90;;;;;;4971733;28;20475;-66
2022/08/17 04:46:01;;;;;;;11.63;9.27;;;21.50;99.90;;;;;;4978138;28;20443;-66
2022/08/17 04:48:30;;;;;;;12.83;9.00;;;21.50;99.90;;;;;;4987703;28;20439;-66
2022/08/17 04:50:57;;;;;;;16.73;9.27;;;21.40;99.90;;;;;;4988941;28;20728;-66
2022/08/17 04:53:23;;;;;;;18.13;9.53;;;21.40;99.90;;;;;;4988616;28;20460;-66
2022/08/17 04:55:51;;;;;;;15.13;9.40;;;21.40;99.90;;;;;;4988171;28;20420;-65
2022/08/17 04:58:18;;;;;;;12.43;8.90;;;21.40;99.90;;;;;;4988414;28;20914;-62
2022/08/17 05:00:44;;;;;;;9.70;8.67;;;21.40;99.90;;;;;;4970869;28;20409;-65
2022/08/17 05:03:11;;;;;;;50.60;11.93;;;21.40;99.90;;;;;;4987919;28;20449;-66
2022/08/17 05:05:41;;;;;;;20.80;9.67;;;21.50;99.90;;;;;;4988109;28;20497;-65
2022/08/17 05:08:08;;;;;;;14.70;9.40;;;21.60;99.90;;;;;;4987783;28;20510;-66
2022/08/17 05:10:36;;;;;;;17.30;10.33;;;21.60;99.90;;;;;;4987961;28;20550;-67
2022/08/17 05:13:10;;;;;;;16.63;9.93;;;21.70;99.90;;;;;;4988884;28;20769;-65
2022/08/17 05:15:38;;;;;;;19.47;9.50;;;21.70;99.90;;;;;;4988876;28;20400;-65
2022/08/17 05:18:05;;;;;;;13.00;8.97;;;22.20;99.90;;;;;;4988949;28;20474;-64
2022/08/17 05:20:32;;;;;;;24.50;8.97;;;23.20;99.90;;;;;;4989069;28;20692;-64
2022/08/17 05:23:00;;;;;;;21.77;10.20;;;24.10;99.90;;;;;;4989425;28;20516;-65
2022/08/17 05:25:32;;;;;;;18.20;8.83;;;24.60;99.90;;;;;;4988519;28;20417;-63
2022/08/17 05:27:58;;;;;;;18.90;9.47;;;24.40;99.90;;;;;;4983662;28;20955;-65
2022/08/17 05:30:25;;;;;;;11.70;8.17;;;24.30;99.90;;;;;;4989600;28;20423;-65
2022/08/17 05:32:57;;;;;;;12.17;8.63;;;24.30;99.90;;;;;;4989225;28;20428;-64
2022/08/17 05:35:30;;;;;;;18.17;9.17;;;24.50;99.90;;;;;;4983969;28;20506;-62
2022/08/17 05:37:56;;;;;;;25.97;10.00;;;24.80;99.90;;;;;;4989910;28;20895;-62
2022/08/17 05:40:22;;;;;;;22.03;10.10;;;25.10;99.90;;;;;;4989574;28;20508;-63
2022/08/17 05:42:49;;;;;;;21.00;9.80;;;25.30;99.90;;;;;;4990387;28;20489;-68
2022/08/17 05:45:16;;;;;;;11.57;8.43;;;25.30;99.90;;;;;;4989120;28;20427;-62
2022/08/17 05:47:44;;;;;;;11.40;10.30;;;25.50;99.90;;;;;;4988473;28;20526;-63
2022/08/17 05:50:20;;;;;;;17.00;9.03;;;25.70;99.90;;;;;;4980373;28;20442;-63
2022/08/17 05:52:58;;;;;;;18.23;9.10;;;25.80;99.90;;;;;;4990528;28;20450;-63
2022/08/17 05:55:44;;;;;;;16.97;9.13;;;25.90;99.90;;;;;;4988241;28;20463;-65
2022/08/17 05:58:41;;;;;;;28.27;10.07;;;26.00;99.90;;;;;;4988012;28;20458;-67
2022/08/17 06:01:27;;;;;;;22.57;8.53;;;26.00;99.90;;;;;;4991441;28;20918;-63
2022/08/17 06:04:11;;;;;;;15.57;8.83;;;26.20;99.90;;;;;;4988607;28;20412;-63
2022/08/17 06:07:06;;;;;;;30.83;11.30;;;26.40;99.90;;;;;;4985255;28;20443;-67
2022/08/17 06:09:46;;;;;;;15.47;9.10;;;26.40;99.90;;;;;;4984298;28;20502;-65
2022/08/17 06:12:20;;;;;;;16.53;9.53;;;26.10;99.30;;;;;;4989579;28;20412;-62
2022/08/17 06:15:25;;;;;;;24.10;15.20;;;25.80;98.50;;;;;;4990080;28;20529;-60
2022/08/17 06:17:58;;;;;;;32.67;13.00;;;25.90;98.30;;;;;;4989154;28;20458;-66
2022/08/17 06:20:29;;;;;;;38.77;11.03;;;25.80;97.60;;;;;;4989456;28;20448;-66
2022/08/17 06:23:02;;;;;;;33.07;11.87;;;25.60;97.00;;;;;;4988227;28;20450;-63
2022/08/17 06:25:37;;;;;;;36.00;11.07;;;25.40;97.60;;;;;;4989529;28;20555;-63
2022/08/17 06:28:13;;;;;;;16.40;10.67;;;25.20;97.90;;;;;;4991675;28;20513;-64
2022/08/17 06:30:59;;;;;;;13.17;10.20;;;25.10;98.10;;;;;;4991471;28;20893;-61
2022/08/17 06:33:31;;;;;;;20.50;10.13;;;25.00;98.70;;;;;;4985605;28;20996;-61
2022/08/17 06:36:14;;;;;;;24.47;10.73;;;24.80;99.40;;;;;;4991606;28;20419;-64
2022/08/17 06:39:05;;;;;;;22.80;12.43;;;24.80;99.90;;;;;;4989251;28;20447;-64
2022/08/17 06:42:00;;;;;;;38.87;11.50;;;24.90;99.90;;;;;;4986557;28;20476;-62
2022/08/17 06:44:37;;;;;;;28.73;11.20;;;25.30;99.90;;;;;;4983560;28;20497;-67
2022/08/17 06:47:09;;;;;;;11.77;10.67;;;25.70;99.90;;;;;;4988723;28;20400;-67
2022/08/17 06:49:41;;;;;;;21.93;11.13;;;25.80;99.90;;;;;;4990779;28;20471;-60
2022/08/17 06:52:33;;;;;;;14.07;11.47;;;26.00;99.90;;;;;;4989357;28;20452;-63
2022/08/17 06:55:08;;;;;;;10.40;9.30;;;26.60;99.90;;;;;;4990166;28;20411;-63
2022/08/17 06:57:44;;;;;;;15.57;11.13;;;26.70;99.50;;;;;;4983753;28;20558;-63
2022/08/17 07:00:18;;;;;;;10.93;10.07;;;26.70;96.30;;;;;;4989314;28;20418;-63
2022/08/17 07:02:56;;;;;;;9.77;8.83;;;26.60;95.00;;;;;;4989112;28;20430;-63
2022/08/17 07:05:26;;;;;;;10.30;7.30;;;26.70;94.80;;;;;;4988048;28;20420;-62
2022/08/17 07:08:18;;;;;;;15.67;10.30;;;26.70;92.50;;;;;;4990067;28;20441;-62
2022/08/17 07:10:55;;;;;;;13.50;7.90;;;26.90;92.00;;;;;;4988565;28;20531;-63
2022/08/17 07:13:43;;;;;;;7.97;6.97;;;27.00;88.10;;;;;;4988320;28;20418;-62
2022/08/17 07:16:38;;;;;;;9.07;7.43;;;26.80;85.00;;;;;;4989744;28;20470;-66
2022/08/17 07:19:06;;;;;;;11.70;7.13;;;26.50;84.40;;;;;;4988926;28;20456;-62
2022/08/17 07:21:53;;;;;;;9.97;6.90;;;26.70;82.70;;;;;;4990973;28;20408;-62
2022/08/17 07:24:28;;;;;;;10.83;7.00;;;26.60;81.70;;;;;;4982845;28;20430;-64
2022/08/17 07:27:05;;;;;;;12.23;6.87;;;26.70;80.40;;;;;;4988850;28;20419;-64
2022/08/17 07:29:38;;;;;;;13.90;6.43;;;26.90;80.10;;;;;;4987429;28;20462;-65
2022/08/17 07:32:04;;;;;;;11.90;6.43;;;27.30;77.70;;;;;;4989003;28;20899;-65
2022/08/17 07:34:30;;;;;;;7.33;6.63;;;26.90;74.10;;;;;;4982269;28;20852;-60
2022/08/17 07:37:04;;;;;;;8.70;7.40;;;26.60;74.20;;;;;;4988960;28;20452;-64
2022/08/17 07:39:30;;;;;;;7.23;6.50;;;26.00;73.00;;;;;;4988925;28;20649;-60
2022/08/17 07:42:03;;;;;;;7.77;7.07;;;26.00;72.80;;;;;;4988926;28;20471;-65
2022/08/17 07:44:28;;;;;;;7.87;7.07;;;25.90;70.70;;;;;;4987915;28;20443;-64
2022/08/17 07:49:44;;;;;;;11.87;6.63;;;25.80;70.40;;;;;;4988749;28;20203;-60
2022/08/17 07:52:29;;;;;;;8.13;7.43;;;25.80;69.90;;;;;;4987196;28;20415;-63
2022/08/17 07:54:55;;;;;;;13.03;8.50;;;25.30;68.70;;;;;;4987487;28;20442;-61
2022/08/17 07:57:26;;;;;;;8.97;7.07;;;24.90;90.00;;;;;;4986739;28;20890;-63
2022/08/17 08:00:00;;;;;;;9.63;8.37;;;25.10;73.30;;;;;;4987437;28;20444;-62
2022/08/17 08:02:26;;;;;;;14.43;9.40;;;25.00;73.10;;;;;;4986347;28;20747;-60
2022/08/17 08:05:03;;;;;;;12.37;9.33;;;25.30;73.50;;;;;;4987432;28;20477;-63
2022/08/17 08:07:49;;;;;;;15.70;10.00;;;25.70;76.30;;;;;;4986292;28;20196;-60
2022/08/17 08:10:29;;;;;;;9.93;8.10;;;26.10;73.80;;;;;;4985708;28;20517;-63
2022/08/17 08:13:10;;;;;;;12.13;8.10;;;25.90;71.70;;;;;;4987054;28;20533;-63
2022/08/17 08:16:12;;;;;;;12.50;9.07;;;26.50;73.60;;;;;;4986636;28;21009;-62
2022/08/17 08:18:43;;;;;;;7.47;6.87;;;26.50;71.20;;;;;;4980428;28;20478;-62
2022/08/17 08:21:30;;;;;;;9.37;8.47;;;26.60;71.50;;;;;;4988177;28;20407;-62
2022/08/17 08:24:23;;;;;;;11.87;8.17;;;26.70;69.40;;;;;;4990825;28;20820;-61
2022/08/17 08:27:12;;;;;;;19.03;8.50;;;27.20;68.50;;;;;;4989674;28;20434;-61
2022/08/17 08:29:56;;;;;;;7.60;6.80;;;27.40;67.10;;;;;;4979832;28;20435;-61
2022/08/17 08:33:06;;;;;;;21.50;9.40;;;27.30;66.40;;;;;;4988479;28;20424;-63
2022/08/17 08:35:36;;;;;;;12.10;8.07;;;27.40;66.60;;;;;;4974658;28;20913;-63
2022/08/17 08:38:25;;;;;;;7.70;6.90;;;27.70;64.10;;;;;;4989602;28;20470;-63
2022/08/17 08:41:06;;;;;;;25.17;8.87;;;27.50;62.40;;;;;;4984123;28;20440;-63
2022/08/17 08:43:53;;;;;;;6.47;5.87;;;27.90;61.70;;;;;;4986076;28;20407;-63
2022/08/17 08:46:43;;;;;;;25.00;7.73;;;27.60;59.20;;;;;;4986767;28;20896;-60
2022/08/17 08:49:18;;;;;;;9.47;7.80;;;27.70;59.90;;;;;;4988920;28;20865;-60
2022/08/17 08:51:58;;;;;;;7.67;6.87;;;28.20;58.80;;;;;;4989441;28;20526;-60
2022/08/17 08:54:36;;;;;;;7.23;6.53;;;27.90;56.10;;;;;;4989493;28;20955;-64
2022/08/17 08:57:35;;;;;;;8.73;6.83;;;27.10;54.40;;;;;;4989184;28;20439;-68
2022/08/17 09:00:14;;;;;;;14.47;7.10;;;26.50;52.70;;;;;;4987835;28;20438;-64
2022/08/17 09:03:11;;;;;;;6.37;5.77;;;26.30;54.40;;;;;;4989453;28;20416;-65
2022/08/17 09:05:58;;;;;;;10.53;7.13;;;26.50;54.70;;;;;;4988486;28;20820;-64
2022/08/17 09:08:33;;;;;;;8.03;6.17;;;26.30;54.80;;;;;;4988364;28;20436;-64
2022/08/17 09:11:04;;;;;;;7.33;6.53;;;26.40;55.10;;;;;;4989349;28;20427;-60
2022/08/17 09:13:52;;;;;;;15.57;7.23;;;26.40;54.80;;;;;;4989777;28;20416;-64
2022/08/17 09:16:22;;;;;;;7.03;6.30;;;26.40;55.30;;;;;;4988883;28;20459;-60
2022/08/17 09:18:56;;;;;;;9.07;6.90;;;26.50;54.70;;;;;;4989321;28;20780;-58
2022/08/17 09:21:38;;;;;;;15.57;7.70;;;26.50;54.40;;;;;;4989635;28;20908;-62
2022/08/17 09:24:14;;;;;;;11.27;6.90;;;26.80;54.90;;;;;;4989592;28;20419;-63
2022/08/17 09:26:47;;;;;;;10.93;7.07;;;26.70;54.00;;;;;;4988270;28;20767;-59
2022/08/17 09:29:15;;;;;;;8.63;6.60;;;27.00;53.70;;;;;;4988086;28;20485;-65
2022/08/17 09:31:54;;;;;;;10.87;6.27;;;26.90;53.60;;;;;;4988710;28;20434;-62
2022/08/17 09:34:38;;;;;;;9.60;6.63;;;26.80;53.20;;;;;;4988722;28;21030;-61
2022/08/17 09:37:10;;;;;;;10.33;6.27;;;26.90;53.90;;;;;;4985031;28;20452;-63
2022/08/17 09:40:04;;;;;;;7.80;6.60;;;27.00;54.30;;;;;;4983335;28;20828;-63
2022/08/17 09:42:36;;;;;;;9.17;6.10;;;27.30;53.20;;;;;;4988260;28;20420;-63
2022/08/17 09:45:20;;;;;;;9.20;6.53;;;27.40;52.30;;;;;;4989083;28;20419;-62
2022/08/17 09:48:13;;;;;;;19.50;7.20;;;27.20;51.20;;;;;;4983865;28;20447;-63
2022/08/17 09:50:52;;;;;;;7.10;6.40;;;27.30;51.50;;;;;;4978040;28;20431;-64
2022/08/17 09:53:18;;;;;;;17.23;7.30;;;27.60;51.50;;;;;;4988988;28;20407;-64
2022/08/17 09:56:02;;;;;;;11.97;6.63;;;27.20;48.90;;;;;;4988787;28;20427;-65
2022/08/17 09:58:46;;;;;;;15.80;7.57;;;27.40;49.40;;;;;;4987723;28;20223;-62
2022/08/17 10:01:41;;;;;;;30.83;9.17;;;27.30;49.30;;;;;;4988235;28;20470;-66
2022/08/17 10:04:13;;;;;;;24.17;8.33;;;27.70;51.20;;;;;;4956161;28;20470;-63
2022/08/17 10:07:03;;;;;;;11.17;7.07;;;28.20;49.80;;;;;;4982863;28;20581;-62
2022/08/17 10:10:10;;;;;;;9.47;6.97;;;28.30;48.90;;;;;;4987759;28;20510;-62
2022/08/17 10:12:48;;;;;;;23.97;7.80;;;28.30;48.00;;;;;;4988013;28;20446;-61
2022/08/17 10:15:38;;;;;;;28.13;7.90;;;28.30;47.60;;;;;;4988157;28;20412;-62
2022/08/17 10:18:12;;;;;;;22.23;9.27;;;28.60;47.00;;;;;;4987731;28;20463;-63
2022/08/17 10:26:40;;;;;;;51.90;11.20;;;29.10;43.30;;;;;;4989179;28;20422;-63
2022/08/17 10:29:10;;;;;;;22.50;7.90;;;29.00;41.80;;;;;;4990875;28;20572;-58
2022/08/17 10:31:56;;;;;;;12.40;6.90;;;28.80;40.90;;;;;;4992114;28;20428;-62
2022/08/17 10:34:27;;;;;;;8.60;6.00;;;28.50;39.30;;;;;;4990327;28;20510;-62
2022/08/17 10:37:12;;;;;;;29.53;7.47;;;28.10;38.80;;;;;;4990821;28;20787;-64
2022/08/17 10:40:08;;;;;;;7.57;5.53;;;28.10;39.20;;;;;;4990871;28;20426;-62
2022/08/17 10:42:44;;;;;;;6.60;6.10;;;28.00;39.90;;;;;;4993215;28;20435;-60
2022/08/17 10:45:32;;;;;;;11.07;6.47;;;28.10;40.40;;;;;;4993162;28;20745;-63
2022/08/17 10:48:29;;;;;;;10.30;6.70;;;28.10;40.30;;;;;;4987599;28;20455;-59
2022/08/17 10:50:56;;;;;;;6.70;5.97;;;28.20;40.00;;;;;;4995943;28;20422;-60
2022/08/17 10:53:31;;;;;;;9.20;5.57;;;28.40;40.70;;;;;;4995674;28;20955;-63
2022/08/17 10:56:11;;;;;;;8.90;5.90;;;28.70;40.30;;;;;;4990296;28;20805;-63
2022/08/17 10:58:46;;;;;;;19.97;6.80;;;28.90;39.30;;;;;;4986842;28;20797;-62
2022/08/17 11:01:12;;;;;;;9.57;6.93;;;29.10;37.50;;;;;;4987207;28;20510;-61
2022/08/17 11:04:16;;;;;;;5.90;5.30;;;29.10;37.10;;;;;;4989199;28;20770;-63
2022/08/17 11:07:00;;;;;;;8.37;6.17;;;28.80;35.60;;;;;;4986363;28;21220;-63
2022/08/17 11:09:38;;;;;;;15.10;6.73;;;28.90;35.50;;;;;;4986519;28;20478;-62
2022/08/17 11:12:29;;;;;;;18.47;6.77;;;29.00;35.40;;;;;;4983925;28;20495;-64
2022/08/17 11:15:42;;;;;;;7.33;5.90;;;29.30;35.50;;;;;;4983079;28;20431;-64
2022/08/17 11:18:47;;;;;;;6.87;5.57;;;29.40;34.30;;;;;;4903381;29;20458;-63
2022/08/17 11:21:43;;;;;;;7.50;5.50;;;29.30;32.90;;;;;;4903936;29;20466;-61
2022/08/17 11:24:21;;;;;;;7.87;7.07;;;29.20;32.00;;;;;;4985569;28;20487;-64
2022/08/17 11:27:20;;;;;;;7.73;4.87;;;29.30;31.70;;;;;;4981507;28;20512;-64
2022/08/17 11:30:04;;;;;;;8.57;6.43;;;29.40;30.80;;;;;;4986998;28;20419;-64
2022/08/17 11:32:39;;;;;;;6.43;5.67;;;29.40;30.90;;;;;;4986465;28;20808;-62
2022/08/17 11:35:12;;;;;;;10.33;6.87;;;29.50;30.20;;;;;;4985715;28;20493;-63
2022/08/17 11:38:12;;;;;;;10.40;6.73;;;29.60;30.90;;;;;;4986900;28;20469;-61
2022/08/17 11:41:15;;;;;;;7.73;6.57;;;29.50;31.10;;;;;;4987175;28;20447;-64
2022/08/17 11:43:49;;;;;;;14.13;7.80;;;29.10;30.80;;;;;;4987972;28;20502;-64
2022/08/17 11:51:32;;;;;;;14.33;7.53;;;29.40;32.70;;;;;;4985437;28;20431;-64
2022/08/17 11:52:34;;;;;;;9.53;6.83;;;29.70;31.20;;;;;;4986636;28;20425;-64
2022/08/17 11:55:00;;;;;;;15.87;8.37;;;29.50;29.70;;;;;;4984194;28;20439;-64
2022/08/17 11:57:26;;;;;;;16.47;8.57;;;29.30;30.10;;;;;;4990005;28;20459;-64
2022/08/17 11:59:58;;;;;;;16.80;8.30;;;29.40;42.00;;;;;;4990245;28;20179;-64
2022/08/17 12:02:31;;;;;;;18.53;7.97;;;29.50;29.20;;;;;;4989487;28;20251;-68
2022/08/17 12:05:15;;;;;;;18.03;7.23;;;29.60;29.40;;;;;;4990175;28;20423;-64
2022/08/17 12:07:46;;;;;;;7.10;6.30;;;29.70;28.50;;;;;;4990275;28;20435;-62
2022/08/17 12:10:16;;;;;;;33.60;9.97;;;29.40;27.50;;;;;;4989414;28;21006;-65
2022/08/17 12:12:43;;;;;;;10.80;6.10;;;29.50;27.70;;;;;;4990502;28;20498;-63
2022/08/17 12:15:30;;;;;;;8.53;6.53;;;29.60;26.70;;;;;;4988620;28;20916;-64
2022/08/17 12:17:56;;;;;;;7.87;5.57;;;29.60;26.00;;;;;;4985778;28;20494;-62
2022/08/17 12:20:28;;;;;;;18.50;7.37;;;29.50;25.00;;;;;;4990216;28;20451;-63
2022/08/17 12:23:24;;;;;;;11.33;6.00;;;29.50;25.00;;;;;;4990069;28;20686;-59
2022/08/17 12:26:07;;;;;;;11.80;6.40;;;29.50;24.10;;;;;;4988118;28;20467;-61
2022/08/17 12:28:35;;;;;;;6.77;5.83;;;29.50;23.50;;;;;;4989532;28;20451;-63
2022/08/17 12:31:16;;;;;;;15.57;6.90;;;29.40;23.70;;;;;;4990872;28;20774;-63
2022/08/17 12:33:44;;;;;;;9.73;6.47;;;29.50;34.90;;;;;;4990078;28;20436;-61
2022/08/17 12:36:14;;;;;;;6.60;6.07;;;29.40;23.10;;;;;;4989842;28;20407;-62
2022/08/17 12:38:47;;;;;;;16.77;7.07;;;29.40;23.30;;;;;;4988503;28;20462;-60
2022/08/17 12:41:33;;;;;;;15.73;7.17;;;29.20;23.30;;;;;;4989998;28;20412;-60
2022/08/17 12:44:19;;;;;;;7.97;5.70;;;29.10;23.10;;;;;;4991051;28;20485;-60
2022/08/17 12:47:03;;;;;;;16.70;6.70;;;29.00;22.70;;;;;;4989131;28;20435;-63
2022/08/17 12:49:28;;;;;;;16.20;7.73;;;28.80;22.60;;;;;;4988802;28;20623;-61
2022/08/17 12:52:15;;;;;;;9.73;5.87;;;28.60;22.50;;;;;;4989362;28;22006;-62
2022/08/17 12:55:05;;;;;;;15.13;7.23;;;28.50;23.30;;;;;;4987877;28;20688;-63
2022/08/17 12:57:37;;;;;;;10.23;6.10;;;28.50;22.60;;;;;;4987272;28;20474;-63
2022/08/17 13:00:16;;;;;;;13.50;6.10;;;28.70;22.80;;;;;;4984407;28;20532;-61
2022/08/17 13:02:44;;;;;;;14.40;6.20;;;28.80;22.70;;;;;;4981631;28;20888;-63
2022/08/17 13:05:37;;;;;;;12.90;6.23;;;28.90;22.30;;;;;;4981060;28;20446;-65
2022/08/17 13:08:16;;;;;;;7.10;6.40;;;29.00;22.00;;;;;;4979409;28;20455;-62
2022/08/17 13:10:43;;;;;;;8.70;6.30;;;28.90;21.90;;;;;;4983127;28;20521;-63
2022/08/17 13:13:22;;;;;;;6.70;6.03;;;28.70;21.60;;;;;;4984996;28;20423;-64
2022/08/17 13:16:19;;;;;;;22.10;10.13;;;28.40;21.60;;;;;;4982136;28;20463;-60
2022/08/17 13:18:57;;;;;;;12.60;7.10;;;28.40;22.20;;;;;;4972445;28;20742;-62
2022/08/17 13:21:25;;;;;;;10.93;6.73;;;28.50;22.10;;;;;;4981494;28;20813;-64
2022/08/17 13:24:02;;;;;;;7.17;6.53;;;28.50;22.20;;;;;;4980424;28;20415;-60
2022/08/17 13:26:40;;;;;;;8.93;6.40;;;28.70;22.40;;;;;;4982790;28;20923;-64
2022/08/17 13:29:23;;;;;;;14.83;6.97;;;28.80;21.70;;;;;;4986368;28;20451;-62
2022/08/17 13:31:52;;;;;;;8.33;5.87;;;28.80;21.40;;;;;;4985384;28;20502;-65
2022/08/17 13:34:24;;;;;;;6.50;5.70;;;28.80;22.00;;;;;;4987336;28;20527;-60
2022/08/17 13:37:12;;;;;;;9.17;7.10;;;28.50;21.30;;;;;;4983156;28;20506;-63
2022/08/17 13:39:43;;;;;;;9.60;6.13;;;28.40;22.30;;;;;;4988938;28;20774;-62
2022/08/17 13:42:29;;;;;;;9.10;6.80;;;28.60;22.30;;;;;;4989054;28;20470;-61
2022/08/17 13:44:55;;;;;;;9.27;7.30;;;28.70;22.00;;;;;;4989111;28;20408;-62
2022/08/17 13:47:21;;;;;;;7.70;5.87;;;28.90;22.10;;;;;;4987454;28;20970;-60